Time;durP1;ratioP1;P1;durP2;ratioP2;P2;SDS_P1;SDS_P2;PMS_P1;PMS_P2;Temp;Humidity;BMP_temperature;BMP_pressure;BME280_temperature;BME280_humidity;BME280_pressure;Samples;Min_cycle;Max_cycle;Signal;HPM_P1;HPM_P2
2022/12/15 00:38:43;;;;;;;;;;;;;;;8.33;46.20;99515.94;4963262;28;98187;-70
2022/12/15 00:41:09;;;;;;;;;;;;;;;8.31;46.13;99515.41;4945376;28;99874;-69
2022/12/15 00:43:35;;;;;;;;;;;;;;;8.29;46.18;99514.88;4945120;28;99298;-66
2022/12/15 00:48:46;;;;;;;;;;;;;;;8.25;46.20;99517.34;4962328;28;98041;-66
2022/12/15 00:51:13;;;;;;;;;;;;;;;8.24;46.29;99525.66;4962882;28;98360;-70
2022/12/15 01:21:09;;;;;;;;;;;;;;;8.04;45.79;99534.56;4958217;28;98843;-70
2022/12/15 01:23:35;;;;;;;;;;;;;;;8.02;46.06;99542.91;4945989;28;98449;-70
2022/12/15 01:26:01;;;;;;;;;;;;;;;8.01;46.22;99540.47;4943059;28;118334;-70
2022/12/15 01:28:27;;;;;;;;;;;;;;;7.99;45.86;99546.13;4956495;28;98870;-70
2022/12/15 01:30:53;;;;;;;;;;;;;;;7.98;46.02;99557.94;4956590;28;129264;-70
2022/12/15 01:33:19;;;;;;;;;;;;;;;7.98;45.96;99565.19;4942152;28;98065;-70
2022/12/15 01:35:53;;;;;;;;;;;;;;;7.94;45.80;99570.31;4945654;28;98071;-70
2022/12/15 01:38:19;;;;;;;;;;;;;;;7.95;45.95;99576.47;4926646;28;122027;-70
2022/12/15 01:40:51;;;;;;;;;;;;;;;7.93;45.97;99574.03;4942410;28;128342;-66
2022/12/15 01:43:19;;;;;;;;;;;;;;;7.92;45.85;99577.81;4942466;28;111882;-70
2022/12/15 01:45:47;;;;;;;;;;;;;;;7.92;46.36;99577.00;4960354;28;99961;-66
2022/12/15 01:48:33;;;;;;;;;;;;;;;7.91;45.99;99580.78;4973519;28;98091;-70
2022/12/15 01:51:22;;;;;;;;;;;;;;;7.88;46.32;99571.38;4958957;28;98316;-70
2022/12/15 01:53:59;;;;;;;;;;;;;;;7.88;45.95;99571.38;4964459;28;98291;-66
2022/12/15 01:56:26;;;;;;;;;;;;;;;7.88;45.87;99582.09;4962324;28;97865;-70
2022/12/15 01:58:53;;;;;;;;;;;;;;;7.86;45.93;99587.75;4952488;28;100029;-66
2022/12/15 02:01:19;;;;;;;;;;;;;;;7.84;46.21;99586.41;4966993;28;98694;-70
2022/12/15 02:03:46;;;;;;;;;;;;;;;7.84;45.79;99594.44;4942638;28;107400;-66
2022/12/15 02:06:11;;;;;;;;;;;;;;;7.84;45.79;99591.78;4943045;28;97950;-66
2022/12/15 02:08:37;;;;;;;;;;;;;;;7.82;46.02;99601.97;4942123;28;127078;-66
2022/12/15 02:11:26;;;;;;;;;;;;;;;7.81;45.87;99597.66;4943409;28;128938;-67
2022/12/15 02:14:09;;;;;;;;;;;;;;;7.80;46.34;99604.91;4960894;27;99704;-70
2022/12/15 02:16:41;;;;;;;;;;;;;;;7.79;45.87;99611.38;4952149;28;98029;-66
2022/12/15 02:19:38;;;;;;;;;;;;;;;7.78;45.90;99619.66;4972707;28;98291;-70
2022/12/15 02:22:19;;;;;;;;;;;;;;;7.76;46.32;99622.63;4956393;28;97917;-70
2022/12/15 02:25:22;;;;;;;;;;;;;;;7.75;45.86;99612.97;4958308;28;97736;-67
2022/12/15 02:27:58;;;;;;;;;;;;;;;7.75;46.50;99615.66;4978177;28;97985;-70
2022/12/15 02:30:39;;;;;;;;;;;;;;;7.75;46.27;99615.66;4946892;28;98545;-66
2022/12/15 02:33:34;;;;;;;;;;;;;;;7.73;45.94;99625.84;4965102;28;121922;-70
2022/12/15 02:36:06;;;;;;;;;;;;;;;7.73;45.70;99636.56;4935261;28;121605;-66
2022/12/15 02:38:37;;;;;;;;;;;;;;;7.74;45.72;99640.88;4944412;28;116296;-66
2022/12/15 02:41:04;;;;;;;;;;;;;;;7.74;46.20;99640.88;4930454;28;123595;-66
2022/12/15 02:43:32;;;;;;;;;;;;;;;7.74;45.91;99640.06;4926882;28;99426;-66
2022/12/15 02:46:11;;;;;;;;;;;;;;;7.72;45.82;99632.28;4932919;28;114602;-66
2022/12/15 02:51:18;;;;;;;;;;;;;;;7.75;45.69;99639.81;4962345;28;127421;-70
2022/12/15 02:53:55;;;;;;;;;;;;;;;7.76;45.76;99641.41;4933141;28;117240;-66
2022/12/15 02:56:42;;;;;;;;;;;;;;;7.76;46.08;99646.78;4930208;28;98271;-70
2022/12/15 02:59:39;;;;;;;;;;;;;;;7.77;45.59;99639.53;4939821;28;113668;-66
2022/12/15 03:02:05;;;;;;;;;;;;;;;7.76;46.08;99637.94;4923517;28;99633;-66
2022/12/15 03:04:32;;;;;;;;;;;;;;;7.78;46.00;99647.31;4928011;28;98446;-70
2022/12/15 03:07:02;;;;;;;;;;;;;;;7.79;45.91;99648.13;4942333;28;98104;-66
2022/12/15 03:09:31;;;;;;;;;;;;;;;7.79;45.96;99650.81;4955297;28;98516;-70
2022/12/15 03:11:57;;;;;;;;;;;;;;;7.79;46.14;99656.97;4911660;28;123696;-66
2022/12/15 03:14:24;;;;;;;;;;;;;;;7.81;45.82;99659.38;4944611;28;114140;-70
2022/12/15 03:16:50;;;;;;;;;;;;;;;7.79;46.17;99664.22;4907860;28;98017;-66
2022/12/15 03:19:16;;;;;;;;;;;;;;;7.81;45.85;99665.56;4929215;28;99659;-70
2022/12/15 03:21:42;;;;;;;;;;;;;;;7.84;45.80;99677.63;4925867;28;125422;-70
2022/12/15 03:24:08;;;;;;;;;;;;;;;7.91;46.13;99677.38;4930934;28;126844;-66
2022/12/15 03:26:34;;;;;;;;;;;;;;;7.99;45.89;99676.84;4959192;28;127524;-66
2022/12/15 03:29:00;;;;;;;;;;;;;;;8.06;46.35;99674.69;4967518;28;117000;-71
2022/12/15 03:31:26;;;;;;;;;;;;;;;8.12;46.08;99676.28;4959389;28;125732;-67
2022/12/15 03:33:52;;;;;;;;;;;;;;;8.18;45.96;99677.91;4928231;28;106389;-70
2022/12/15 03:36:18;;;;;;;;;;;;;;;8.22;45.97;99678.97;4941998;28;125302;-71
2022/12/15 03:38:44;;;;;;;;;;;;;;;8.26;45.65;99680.03;4938774;28;117712;-66
2022/12/15 03:41:09;;;;;;;;;;;;;;;8.29;45.86;99687.56;4928900;28;128075;-70
2022/12/15 03:43:35;;;;;;;;;;;;;;;8.33;45.87;99685.09;4960814;28;114840;-66
2022/12/15 03:46:01;;;;;;;;;;;;;;;8.36;46.48;99684.56;4937905;28;128408;-70
2022/12/15 03:48:27;;;;;;;;;;;;;;;8.39;45.43;99694.81;4954945;28;116902;-67
2022/12/15 03:50:54;;;;;;;;;;;;;;;8.41;46.16;99706.09;4942870;28;127605;-70
2022/12/15 03:53:19;;;;;;;;;;;;;;;8.44;45.92;99699.38;4942144;28;98287;-66
2022/12/15 03:55:45;;;;;;;;;;;;;;;8.46;45.90;99703.41;4925584;28;127259;-66
2022/12/15 03:58:11;;;;;;;;;;;;;;;8.47;45.86;99699.63;4945537;28;117147;-66
2022/12/15 04:00:38;;;;;;;;;;;;;;;8.48;46.46;99706.59;4939906;28;128243;-70
2022/12/15 04:03:04;;;;;;;;;;;;;;;8.50;45.69;99717.09;4954697;28;98485;-71
2022/12/15 04:05:32;;;;;;;;;;;;;;;8.51;45.73;99727.56;4955507;28;127591;-70
2022/12/15 04:07:58;;;;;;;;;;;;;;;8.52;45.54;99737.22;4925449;28;98222;-66
2022/12/15 04:10:25;;;;;;;;;;;;;;;8.54;45.59;99742.34;4928324;28;98666;-66
2022/12/15 04:13:17;;;;;;;;;;;;;;;8.54;46.07;99745.03;4911135;28;121271;-66
2022/12/15 04:15:43;;;;;;;;;;;;;;;8.54;45.48;99750.41;4938003;28;129932;-70
2022/12/15 04:18:09;;;;;;;;;;;;;;;8.55;46.38;99752.81;4939668;28;116669;-70
2022/12/15 04:20:35;;;;;;;;;;;;;;;8.55;45.84;99752.81;4941891;28;98500;-66
2022/12/15 04:23:01;;;;;;;;;;;;;;;8.55;45.80;99755.47;4944475;28;117704;-67
2022/12/15 05:31:57;;;;;;;;;;;;;;;8.63;45.93;99839.31;4927827;28;99418;-66
2022/12/15 05:34:28;;;;;;;;;;;;;;;8.64;45.96;99840.91;4936708;28;97780;-70
2022/12/15 05:36:54;;;;;;;;;;;;;;;8.63;46.23;99839.31;4927741;28;98098;-70
2022/12/15 05:39:20;;;;;;;;;;;;;;;8.63;46.00;99842.00;4923939;28;97928;-66
2022/12/15 05:41:46;;;;;;;;;;;;;;;8.63;46.01;99842.78;4941612;28;118659;-67
2022/12/15 05:44:12;;;;;;;;;;;;;;;8.63;45.59;99850.84;4940967;28;98031;-66
2022/12/15 05:46:38;;;;;;;;;;;;;;;8.63;45.42;99858.13;4929002;28;127773;-70
2022/12/15 05:49:05;;;;;;;;;;;;;;;8.63;45.68;99852.75;4947145;28;128529;-66
2022/12/15 05:51:31;;;;;;;;;;;;;;;8.62;46.03;99856.50;4939108;28;99106;-66
2022/12/15 05:53:56;;;;;;;;;;;;;;;8.60;45.85;99843.31;4942943;28;114960;-66
2022/12/15 05:56:23;;;;;;;;;;;;;;;8.59;46.13;99855.97;4938150;28;128030;-66
2022/12/15 05:58:49;;;;;;;;;;;;;;;8.59;46.27;99857.84;4938719;28;120243;-70
2022/12/15 06:01:16;;;;;;;;;;;;;;;8.58;45.93;99853.56;4940917;28;125486;-66
2022/12/15 06:03:42;;;;;;;;;;;;;;;8.57;46.11;99843.88;4926315;28;114148;-66
2022/12/15 06:06:08;;;;;;;;;;;;;;;8.54;45.69;99852.47;4936002;28;129257;-70
2022/12/15 06:08:36;;;;;;;;;;;;;;;8.54;45.67;99855.16;4925522;28;126567;-70
2022/12/15 06:11:02;;;;;;;;;;;;;;;8.52;46.23;99862.66;4946978;28;98189;-66
2022/12/15 06:13:30;;;;;;;;;;;;;;;8.49;46.19;99864.03;4928835;28;116327;-70
2022/12/15 06:16:04;;;;;;;;;;;;;;;8.47;46.19;99868.84;4931691;28;99080;-66
2022/12/15 06:18:35;;;;;;;;;;;;;;;8.46;45.53;99872.63;4923192;28;125710;-66
2022/12/15 06:21:03;;;;;;;;;;;;;;;8.44;45.49;99880.13;4933196;28;99570;-66
2022/12/15 06:23:29;;;;;;;;;;;;;;;8.42;45.89;99887.66;4944970;28;98277;-70
2022/12/15 06:25:55;;;;;;;;;;;;;;;8.41;45.57;99899.47;4953973;28;98346;-70
2022/12/15 06:28:23;;;;;;;;;;;;;;;8.40;45.65;99903.22;4931653;28;98269;-71
2022/12/15 06:30:53;;;;;;;;;;;;;;;8.38;45.59;99902.69;4927535;28;98540;-70
2022/12/15 06:33:20;;;;;;;;;;;;;;;8.36;45.90;99907.47;4946095;28;97822;-66
2022/12/15 06:35:46;;;;;;;;;;;;;;;8.34;46.12;99915.81;4973064;28;117054;-66
2022/12/15 06:38:12;;;;;;;;;;;;;;;8.32;46.29;99909.09;4943711;28;128145;-66
2022/12/15 06:40:38;;;;;;;;;;;;;;;8.33;45.92;99916.06;4921987;28;98222;-66
2022/12/15 06:43:06;;;;;;;;;;;;;;;8.30;45.66;99921.97;4927293;28;98774;-66
2022/12/15 06:45:32;;;;;;;;;;;;;;;8.29;46.07;99929.25;4911983;28;98125;-71
2022/12/15 06:47:58;;;;;;;;;;;;;;;8.28;46.03;99929.47;4925445;28;124523;-66
2022/12/15 06:50:24;;;;;;;;;;;;;;;8.27;45.65;99930.56;4924703;28;128243;-67
2022/12/15 06:52:50;;;;;;;;;;;;;;;8.26;45.79;99937.81;4958867;28;98172;-70
2022/12/15 06:55:16;;;;;;;;;;;;;;;8.25;45.56;99936.22;4936277;28;127758;-70
2022/12/15 06:57:42;;;;;;;;;;;;;;;8.23;45.99;99942.91;4936491;28;98579;-70
2022/12/15 07:00:08;;;;;;;;;;;;;;;8.23;45.77;99948.28;4920180;28;127873;-66
2022/12/15 07:02:34;;;;;;;;;;;;;;;8.22;45.81;99950.16;4936563;28;115270;-66
2022/12/15 07:05:01;;;;;;;;;;;;;;;8.21;46.30;99956.56;4936660;28;98184;-70
2022/12/15 07:07:27;;;;;;;;;;;;;;;8.19;45.38;99958.72;4938475;28;99544;-66
2022/12/15 07:09:53;;;;;;;;;;;;;;;8.19;45.70;99956.03;4940515;28;128612;-66
2022/12/15 07:12:19;;;;;;;;;;;;;;;8.17;45.60;99963.53;4956479;28;99203;-70
2022/12/15 07:14:45;;;;;;;;;;;;;;;8.17;46.17;99960.84;4914827;28;98256;-70
2022/12/15 07:17:11;;;;;;;;;;;;;;;8.16;45.90;99966.50;4921120;28;99499;-70
2022/12/15 07:19:37;;;;;;;;;;;;;;;8.14;45.38;99964.09;4953420;28;127684;-66
2022/12/15 07:22:02;;;;;;;;;;;;;;;8.14;46.27;99960.59;4920307;28;118331;-66
2022/12/15 07:24:28;;;;;;;;;;;;;;;8.13;45.50;99959.78;4954620;28;128465;-70
2022/12/15 07:26:54;;;;;;;;;;;;;;;8.12;45.91;99953.59;4939165;28;102757;-70
2022/12/15 07:29:20;;;;;;;;;;;;;;;8.13;45.58;99959.78;4918500;28;126494;-70
2022/12/15 07:31:46;;;;;;;;;;;;;;;8.11;45.67;99960.03;4923539;28;102380;-66
2022/12/15 07:34:12;;;;;;;;;;;;;;;8.12;45.64;99952.78;4943105;28;128074;-70
2022/12/15 07:36:38;;;;;;;;;;;;;;;8.11;46.08;99960.03;4920204;28;127557;-70
2022/12/15 07:39:04;;;;;;;;;;;;;;;8.09;45.94;99970.22;4952074;28;98239;-66
2022/12/15 07:41:30;;;;;;;;;;;;;;;8.15;45.58;99972.94;4937472;28;99012;-71
2022/12/15 07:43:56;;;;;;;;;;;;;;;8.24;45.75;99966.00;4938059;28;127778;-67
2022/12/15 07:46:23;;;;;;;;;;;;;;;8.26;45.81;99971.91;4949592;28;98123;-70
2022/12/15 07:48:48;;;;;;;;;;;;;;;8.35;45.32;99979.19;4941026;28;99326;-70
2022/12/15 07:51:14;;;;;;;;;;;;;;;8.34;45.66;99977.59;4971928;28;99831;-70
2022/12/15 07:53:40;;;;;;;;;;;;;;;8.37;45.58;99976.28;4941129;28;115598;-66
2022/12/15 07:56:06;;;;;;;;;;;;;;;8.40;44.85;99972.25;4951445;28;127977;-66
2022/12/15 07:58:33;;;;;;;;;;;;;;;8.47;45.01;99978.19;4973147;28;125286;-66
2022/12/15 08:01:03;;;;;;;;;;;;;;;8.53;45.37;99979.81;4955459;28;117244;-70
2022/12/15 08:03:29;;;;;;;;;;;;;;;8.55;45.15;99991.91;4956870;28;119955;-70
2022/12/15 08:05:55;;;;;;;;;;;;;;;8.50;45.45;99999.94;4973783;28;98766;-66
2022/12/15 08:08:21;;;;;;;;;;;;;;;8.51;45.63;99998.06;4955453;28;127604;-70
2022/12/15 08:10:47;;;;;;;;;;;;;;;8.79;45.42;100002.16;4943233;28;112367;-66
2022/12/15 08:13:13;;;;;;;;;;;;;;;9.14;44.73;99997.88;4956448;28;116148;-67
2022/12/15 08:15:39;;;;;;;;;;;;;;;9.41;44.48;99994.91;4971670;28;127353;-67
2022/12/15 08:18:06;;;;;;;;;;;;;;;9.63;44.39;100002.69;4957143;28;126978;-70
2022/12/15 08:20:32;;;;;;;;;;;;;;;9.98;44.50;100001.78;4956502;28;97865;-66
2022/12/15 08:22:58;;;;;;;;;;;;;;;10.31;43.91;100000.34;4943082;28;99385;-67
2022/12/15 08:25:27;;;;;;;;;;;;;;;10.66;43.79;100009.34;4952239;28;101099;-68
2022/12/15 08:27:53;;;;;;;;;;;;;;;10.97;43.58;100005.38;4940515;28;98169;-67
2022/12/15 08:30:19;;;;;;;;;;;;;;;10.91;43.96;100017.25;4975268;28;98041;-71
2022/12/15 08:32:46;;;;;;;;;;;;;;;10.79;44.36;100012.22;4952794;28;123617;-71
2022/12/15 08:35:12;;;;;;;;;;;;;;;11.05;44.14;100015.56;4940384;28;99506;-67
2022/12/15 08:37:38;;;;;;;;;;;;;;;11.03;44.35;100020.41;4938154;28;97960;-67
2022/12/15 08:40:05;;;;;;;;;;;;;;;11.15;44.28;100022.75;4938127;28;114002;-67
2022/12/15 08:42:35;;;;;;;;;;;;;;;11.43;44.14;100029.25;4936724;28;98123;-67
2022/12/15 08:45:01;;;;;;;;;;;;;;;11.71;43.88;100027.69;4957117;28;98523;-71
2022/12/15 08:47:26;;;;;;;;;;;;;;;11.96;43.71;100031.22;4940747;28;129324;-67
2022/12/15 08:49:53;;;;;;;;;;;;;;;12.21;43.70;100033.63;4953460;28;116224;-67
2022/12/15 08:52:20;;;;;;;;;;;;;;;12.47;43.74;100031.44;4958409;28;99588;-71
2022/12/15 08:54:45;;;;;;;;;;;;;;;12.67;43.60;100024.94;4956600;28;97819;-71
2022/12/15 08:57:11;;;;;;;;;;;;;;;12.85;43.73;100030.63;4938585;28;128692;-71
2022/12/15 08:59:37;;;;;;;;;;;;;;;12.97;43.84;100034.53;4955135;28;108532;-71
2022/12/15 09:02:03;;;;;;;;;;;;;;;13.14;43.85;100031.28;4953533;28;128394;-71
2022/12/15 09:04:29;;;;;;;;;;;;;;;13.27;43.89;100037.88;4954977;28;130233;-71
2022/12/15 09:06:55;;;;;;;;;;;;;;;13.45;43.66;100038.97;4974872;28;127614;-67
2022/12/15 09:09:21;;;;;;;;;;;;;;;13.62;43.76;100041.09;4956897;28;117427;-71
2022/12/15 09:11:47;;;;;;;;;;;;;;;13.78;43.43;100028.88;4939760;28;98143;-67
2022/12/15 09:14:13;;;;;;;;;;;;;;;13.91;43.66;100017.28;4953228;28;99620;-71
2022/12/15 09:16:39;;;;;;;;;;;;;;;14.05;43.61;100022.69;4937454;28;98439;-72
2022/12/15 09:19:07;;;;;;;;;;;;;;;14.17;43.96;100016.78;4939847;28;116925;-67
2022/12/15 09:21:33;;;;;;;;;;;;;;;14.24;43.99;100020.69;4941560;28;97951;-71
2022/12/15 09:24:00;;;;;;;;;;;;;;;14.31;43.78;100020.28;4941704;28;116354;-71
2022/12/15 09:26:27;;;;;;;;;;;;;;;14.34;43.75;100011.53;4936032;28;100359;-73
2022/12/15 09:28:54;;;;;;;;;;;;;;;14.35;43.93;100017.78;4939355;28;116988;-71
2022/12/15 09:31:22;;;;;;;;;;;;;;;14.34;44.17;100025.06;4919181;28;99932;-71
2022/12/15 09:33:49;;;;;;;;;;;;;;;14.33;44.09;100022.69;4937085;28;125176;-71
2022/12/15 09:36:15;;;;;;;;;;;;;;;14.30;44.35;100028.69;4942786;28;104404;-67
2022/12/15 09:38:41;;;;;;;;;;;;;;;14.25;44.44;100029.63;4954700;28;99365;-68
2022/12/15 09:41:14;;;;;;;;;;;;;;;14.20;44.14;100033.22;4967057;28;100271;-67
2022/12/15 09:44:01;;;;;;;;;;;;;;;14.14;44.37;100023.59;4971649;28;98110;-67
2022/12/15 09:46:35;;;;;;;;;;;;;;;14.08;44.37;100021.28;4942202;28;98313;-70
2022/12/15 09:49:03;;;;;;;;;;;;;;;14.00;44.62;100025.50;4956523;28;98726;-71
2022/12/15 09:51:33;;;;;;;;;;;;;;;13.92;44.59;100024.28;4954233;28;125811;-71
2022/12/15 09:53:59;;;;;;;;;;;;;;;13.84;44.94;100035.03;4922133;28;120525;-71
2022/12/15 09:56:32;;;;;;;;;;;;;;;13.74;44.86;100042.22;4939230;28;126663;-70
2022/12/15 09:59:06;;;;;;;;;;;;;;;13.64;44.79;100050.53;4941165;28;97941;-71
2022/12/15 10:01:37;;;;;;;;;;;;;;;13.55;44.76;100046.09;4937234;28;126839;-71
2022/12/15 10:04:46;;;;;;;;;;;;;;;13.45;44.97;100047.88;4954132;28;117143;-71
2022/12/15 10:07:19;;;;;;;;;;;;;;;13.33;44.92;100044.84;4950807;28;100569;-70
2022/12/15 10:09:45;;;;;;;;;;;;;;;13.23;45.08;100045.78;4942700;28;98723;-67
2022/12/15 10:12:25;;;;;;;;;;;;;;;13.14;45.33;100050.25;4938941;28;127319;-71
2022/12/15 10:15:20;;;;;;;;;;;;;;;13.05;45.08;100056.59;4948635;28;113129;-67
2022/12/15 10:18:01;;;;;;;;;;;;;;;12.94;45.34;100055.97;4969704;28;105770;-71
2022/12/15 10:20:30;;;;;;;;;;;;;;;12.84;45.27;100059.59;4934882;28;111799;-67
2022/12/15 10:22:59;;;;;;;;;;;;;;;12.77;45.12;100064.56;4955742;28;98170;-71
2022/12/15 10:25:28;;;;;;;;;;;;;;;12.69;45.12;100059.78;4952967;28;121015;-70
2022/12/15 10:28:33;;;;;;;;;;;;;;;12.60;45.22;100069.66;4939614;28;99154;-70
2022/12/15 10:31:02;;;;;;;;;;;;;;;12.49;45.54;100075.19;4972073;27;115068;-70
2022/12/15 10:33:33;;;;;;;;;;;;;;;12.40;45.27;100076.13;4930880;28;129408;-67
2022/12/15 10:35:59;;;;;;;;;;;;;;;12.34;45.39;100082.66;4939780;28;129856;-67
2022/12/15 10:38:41;;;;;;;;;;;;;;;12.27;45.24;100075.72;4953802;28;98622;-71
2022/12/15 10:41:07;;;;;;;;;;;;;;;12.22;45.25;100069.56;4957956;28;97874;-70
2022/12/15 10:43:44;;;;;;;;;;;;;;;12.18;45.32;100080.16;4935953;28;99914;-67
2022/12/15 10:46:20;;;;;;;;;;;;;;;12.14;45.25;100075.59;4971547;28;103910;-67
2022/12/15 10:48:47;;;;;;;;;;;;;;;12.11;45.29;100093.19;4954449;28;98325;-71
2022/12/15 10:51:22;;;;;;;;;;;;;;;12.09;45.28;100091.88;4950263;28;98074;-70
2022/12/15 10:53:53;;;;;;;;;;;;;;;12.05;45.42;100102.44;4927273;28;111720;-71
2022/12/15 10:56:21;;;;;;;;;;;;;;;11.99;45.42;100104.41;4924148;28;112474;-67
2022/12/15 10:58:50;;;;;;;;;;;;;;;11.97;45.25;100093.06;4954700;28;120768;-67
2022/12/15 11:01:27;;;;;;;;;;;;;;;11.95;45.46;100094.44;4940468;28;98130;-67
2022/12/15 11:03:54;;;;;;;;;;;;;;;11.91;45.33;100093.41;4958059;28;98268;-71
2022/12/15 11:06:27;;;;;;;;;;;;;;;11.88;45.28;100092.09;4974014;27;98295;-70
2022/12/15 11:09:06;;;;;;;;;;;;;;;11.85;45.41;100094.53;4943337;28;98034;-67
2022/12/15 11:14:22;;;;;;;;;;;;;;;11.78;45.27;100095.63;4965457;28;99124;-66
2022/12/15 11:16:53;;;;;;;;;;;;;;;11.76;45.12;100102.44;4969274;28;98429;-70
2022/12/15 11:19:38;;;;;;;;;;;;;;;11.72;45.38;100096.78;4973392;28;98150;-66
2022/12/15 11:22:30;;;;;;;;;;;;;;;11.70;45.38;100090.84;4944806;28;98448;-66
2022/12/15 11:25:29;;;;;;;;;;;;;;;11.66;45.39;100091.69;4939616;28;98688;-66
2022/12/15 11:27:56;;;;;;;;;;;;;;;11.63;45.34;100098.50;4946872;28;98674;-70
2022/12/15 11:30:25;;;;;;;;;;;;;;;11.60;45.51;100085.56;4954973;28;118916;-66
2022/12/15 11:33:09;;;;;;;;;;;;;;;11.58;45.48;100089.63;4956305;28;115501;-66
2022/12/15 11:36:08;;;;;;;;;;;;;;;11.53;45.46;100088.56;4960916;28;98059;-70
2022/12/15 11:38:45;;;;;;;;;;;;;;;11.51;45.32;100098.84;4973301;28;98784;-66
2022/12/15 11:41:56;;;;;;;;;;;;;;;11.49;45.50;100097.53;4953637;28;129070;-66
2022/12/15 11:44:29;;;;;;;;;;;;;;;11.45;45.42;100099.97;4952549;28;99040;-66
2022/12/15 11:47:06;;;;;;;;;;;;;;;11.43;45.45;100101.31;4952294;28;127403;-65
2022/12/15 11:50:18;;;;;;;;;;;;;;;11.40;45.34;100100.03;4937229;28;125397;-65
2022/12/15 11:53:13;;;;;;;;;;;;;;;11.36;45.28;100090.88;4932136;28;98335;-69
2022/12/15 11:56:02;;;;;;;;;;;;;;;11.34;45.69;100087.63;4970583;28;105805;-69
2022/12/15 11:59:09;;;;;;;;;;;;;;;11.32;45.41;100089.81;4955529;28;99634;-65
2022/12/15 12:02:12;;;;;;;;;;;;;;;11.29;45.48;100096.56;4935862;27;125903;-66
2022/12/15 12:04:49;;;;;;;;;;;;;;;11.27;45.48;100087.13;4953985;28;100030;-70
2022/12/15 12:07:28;;;;;;;;;;;;;;;11.24;45.44;100088.53;4944708;28;98378;-69
2022/12/15 12:10:20;;;;;;;;;;;;;;;11.23;45.47;100088.78;4941174;28;114176;-66
2022/12/15 12:12:56;;;;;;;;;;;;;;;11.21;45.31;100091.78;4959044;28;98757;-65
2022/12/15 12:15:49;;;;;;;;;;;;;;;11.20;45.34;100102.84;4952906;28;98610;-66
2022/12/15 12:18:24;;;;;;;;;;;;;;;11.17;45.32;100093.44;4958980;28;98385;-66
2022/12/15 12:21:05;;;;;;;;;;;;;;;11.17;45.62;100098.03;4955503;28;120868;-65
2022/12/15 12:23:36;;;;;;;;;;;;;;;11.13;45.33;100086.97;4927175;28;100541;-69
2022/12/15 12:26:10;;;;;;;;;;;;;;;11.12;45.45;100079.16;4952879;28;98385;-69
2022/12/15 12:28:46;;;;;;;;;;;;;;;11.11;45.41;100085.63;4943711;28;114067;-69
2022/12/15 12:31:20;;;;;;;;;;;;;;;11.10;45.56;100086.72;4975180;28;98494;-69
2022/12/15 12:33:48;;;;;;;;;;;;;;;11.07;45.40;100090.78;4947297;28;99621;-66
2022/12/15 12:36:14;;;;;;;;;;;;;;;11.06;45.66;100095.38;4953888;28;123277;-66
2022/12/15 12:38:45;;;;;;;;;;;;;;;11.05;45.50;100092.97;4937669;28;116801;-66
2022/12/15 12:41:20;;;;;;;;;;;;;;;11.03;45.56;100089.72;4925199;28;99669;-69
2022/12/15 12:43:51;;;;;;;;;;;;;;;11.02;45.63;100091.63;4952228;28;98124;-66
2022/12/15 12:46:19;;;;;;;;;;;;;;;11.02;45.71;100090.81;4939746;28;97996;-70
2022/12/15 12:49:02;;;;;;;;;;;;;;;11.00;45.25;100087.59;4970636;28;100558;-69
2022/12/15 12:51:39;;;;;;;;;;;;;;;10.99;45.68;100078.69;4935619;28;118034;-66
2022/12/15 12:54:33;;;;;;;;;;;;;;;10.98;45.57;100087.06;4947808;28;124240;-66
2022/12/15 12:56:59;;;;;;;;;;;;;;;10.98;45.69;100095.16;4969539;28;97918;-66
2022/12/15 12:59:28;;;;;;;;;;;;;;;10.96;45.39;100079.25;4938475;28;98040;-65
2022/12/15 13:02:09;;;;;;;;;;;;;;;10.96;45.57;100075.75;4953339;28;98136;-65
2022/12/15 13:04:38;;;;;;;;;;;;;;;10.95;45.59;100069.53;4937254;28;111258;-66
2022/12/15 13:07:24;;;;;;;;;;;;;;;10.93;45.67;100071.72;4958895;28;102606;-65
2022/12/15 13:10:15;;;;;;;;;;;;;;;10.93;45.69;100073.63;4957078;28;98393;-65
2022/12/15 13:12:48;;;;;;;;;;;;;;;10.92;45.58;100080.88;4971882;28;123543;-69
2022/12/15 13:15:24;;;;;;;;;;;;;;;10.91;45.53;100068.50;4955601;28;98729;-69
2022/12/15 13:17:51;;;;;;;;;;;;;;;10.92;45.54;100077.38;4971391;28;98966;-69
2022/12/15 13:20:27;;;;;;;;;;;;;;;10.90;45.47;100080.38;4936445;28;98036;-65
2022/12/15 13:22:54;;;;;;;;;;;;;;;10.90;45.77;100076.88;4950236;28;98514;-69
2022/12/15 13:25:38;;;;;;;;;;;;;;;10.88;45.41;100077.13;4955542;28;108191;-69
2022/12/15 13:28:17;;;;;;;;;;;;;;;10.88;45.84;100081.72;4934491;28;98250;-70
2022/12/15 13:31:17;;;;;;;;;;;;;;;10.87;45.77;100086.31;4969859;28;97993;-65
2022/12/15 13:34:13;;;;;;;;;;;;;;;10.86;45.37;100073.94;4972617;28;98619;-69
2022/12/15 13:36:39;;;;;;;;;;;;;;;10.85;45.70;100075.03;4959906;28;98964;-70
2022/12/15 13:39:11;;;;;;;;;;;;;;;10.84;45.56;100061.78;4966968;28;98890;-65
2022/12/15 13:41:47;;;;;;;;;;;;;;;10.82;45.57;100072.88;4972122;28;97993;-66
2022/12/15 13:44:37;;;;;;;;;;;;;;;10.80;45.30;100083.13;4925020;28;100345;-69
2022/12/15 13:47:10;;;;;;;;;;;;;;;10.77;45.76;100071.00;4937123;28;98320;-70
2022/12/15 13:49:42;;;;;;;;;;;;;;;10.76;45.57;100073.97;4938555;28;123979;-69
2022/12/15 13:52:28;;;;;;;;;;;;;;;10.74;45.42;100082.34;4968637;28;97954;-70
2022/12/15 13:54:56;;;;;;;;;;;;;;;10.73;45.44;100080.75;4940634;28;125323;-69
2022/12/15 13:57:22;;;;;;;;;;;;;;;10.72;45.37;100089.09;4968625;28;125518;-66
2022/12/15 13:59:54;;;;;;;;;;;;;;;10.69;45.49;100085.06;4938062;28;98986;-66
2022/12/15 14:02:35;;;;;;;;;;;;;;;10.67;45.63;100076.44;4933846;28;113294;-66
2022/12/15 14:05:10;;;;;;;;;;;;;;;10.65;45.77;100073.25;4952525;28;122559;-70
2022/12/15 14:07:37;;;;;;;;;;;;;;;10.64;45.81;100078.88;4968045;28;99542;-69
2022/12/15 14:10:04;;;;;;;;;;;;;;;10.63;45.73;100088.88;4952065;28;124686;-69
2022/12/15 14:12:30;;;;;;;;;;;;;;;10.60;45.57;100075.94;4953604;28;117890;-66
2022/12/15 14:14:56;;;;;;;;;;;;;;;10.60;45.48;100085.91;4936568;28;129857;-70
2022/12/15 14:17:21;;;;;;;;;;;;;;;10.57;45.35;100081.88;4939075;28;127100;-70
2022/12/15 14:19:48;;;;;;;;;;;;;;;10.56;46.01;100083.75;4935246;28;128164;-70
2022/12/15 14:22:28;;;;;;;;;;;;;;;10.55;45.80;100087.53;4938967;28;99724;-70
2022/12/15 14:25:21;;;;;;;;;;;;;;;10.52;45.95;100093.47;4936591;28;99254;-66
2022/12/15 14:27:48;;;;;;;;;;;;;;;10.49;45.44;100091.38;4937984;28;113470;-70
2022/12/15 14:30:28;;;;;;;;;;;;;;;10.48;45.83;100091.63;4957119;28;98148;-66
2022/12/15 14:33:10;;;;;;;;;;;;;;;10.45;45.36;100093.00;4958187;28;97948;-69
2022/12/15 14:35:41;;;;;;;;;;;;;;;10.43;46.03;100091.66;4958808;28;125217;-66
2022/12/15 14:38:08;;;;;;;;;;;;;;;10.41;45.50;100100.00;4957311;28;99029;-69
2022/12/15 14:40:35;;;;;;;;;;;;;;;10.38;45.34;100102.44;4950061;28;99319;-66
2022/12/15 14:43:01;;;;;;;;;;;;;;;10.36;45.42;100100.00;4922099;28;98137;-66
2022/12/15 14:45:27;;;;;;;;;;;;;;;10.34;45.64;100107.59;4921768;28;127832;-66
2022/12/15 14:48:07;;;;;;;;;;;;;;;10.32;46.10;100107.84;4934962;28;98438;-69
2022/12/15 14:50:33;;;;;;;;;;;;;;;10.30;46.07;100112.72;4922081;28;100458;-66
2022/12/15 14:53:00;;;;;;;;;;;;;;;10.28;45.72;100120.25;4919054;28;118228;-66
2022/12/15 14:55:33;;;;;;;;;;;;;;;10.26;46.13;100121.63;4920540;28;107300;-70
2022/12/15 14:57:59;;;;;;;;;;;;;;;10.25;45.98;100117.28;4951608;28;119566;-69
2022/12/15 15:00:26;;;;;;;;;;;;;;;10.22;46.00;100115.94;4921227;28;109615;-67
2022/12/15 15:03:14;;;;;;;;;;;;;;;10.21;45.48;100116.19;4939812;28;98186;-66
2022/12/15 15:05:41;;;;;;;;;;;;;;;10.17;45.71;100112.41;4948212;28;99994;-66
2022/12/15 15:08:34;;;;;;;;;;;;;;;10.15;45.78;100107.31;4934726;28;99746;-66
2022/12/15 15:11:20;;;;;;;;;;;;;;;10.13;45.76;100104.09;4950713;28;98734;-67
2022/12/15 15:13:45;;;;;;;;;;;;;;;10.11;45.87;100100.06;4938289;28;98019;-70
2022/12/15 15:16:16;;;;;;;;;;;;;;;10.08;46.11;100094.13;4917417;28;126993;-66
2022/12/15 15:18:42;;;;;;;;;;;;;;;10.06;45.98;100088.22;4922075;28;98822;-70
2022/12/15 15:21:14;;;;;;;;;;;;;;;10.03;45.52;100083.38;4937138;28;100199;-70
2022/12/15 15:23:39;;;;;;;;;;;;;;;10.02;46.16;100091.72;4920431;28;99747;-66